Barcroft Research Lab Weather observations

Data are for 10 minute period ending at time listed.
 Day   Time   Solar   Ave.   Ave.  Ave.  Vector  Std.   Max.    Baro.    
  of    of     Rad.   Air    Rel.  Wind   Wind   Dev.   Wind   Press.    
Year   Day            Temp.  Hum.  Speed  Dir.   Dir.   Gust            
2015   (PST)  Kw/m2    F      %     mph   deg.   deg.    mph     mb.    
------------------------------------------------------------------------
 243   23:10       0   44.2    41    0.7   336    -99     1.3   648.20  
 243   23:20       0   44.2    41    1.3   342    -99     2.0   648.20  
 243   23:30       0   43.8    42    1.0   344    -99     1.6   648.20  
 243   23:40       0   43.3    43    0.4   344    -99     1.0   648.20  
 243   23:50       0   42.4    44    0.3   321    -99     1.4   648.20  
 244    0:00       0   41.3    46    0.4   303    -99     1.3   648.20  
 244    0:10       0   41.2    46    0.1   304    -99     0.8   648.20  
 244    0:20       0   40.7    47    0.6   287    -99     1.5   648.20  
 244    0:30       0   40.8    46    0.9   236    -99     2.0   648.20  
 244    0:40       0   41.4    45    1.3   219    -99     1.8   648.20  
 244    0:50       0   41.6    45    1.5   219    -99     2.0   648.20  
 244    1:00       0   41.4    45    1.4   208    -99     2.6   648.20  
 244    1:10       0   40.7    47    0.1   232    -99     0.9   648.00  
 244    1:20       0   39.8    48    0.6   241    -99     2.6   648.00  
 244    1:30       0   39.5    48    0.5   218    -99     2.3   648.00  
 244    1:40       0   39.9    48    1.6   209    -99     2.9   648.00  
 244    1:50       0   40.3    47    1.4   195    -99     3.6   648.00  
 244    2:00       0   40.2    47    1.9   212    -99     3.9   648.00  
 244    2:10       0   40.8    46    4.7   226    -99     6.1   647.70  
 244    2:20       0   40.9    46    5.6   227    -99     6.9   647.70  
 244    2:30       0   40.6    47    5.8   229    -99     7.3   647.70  
 244    2:40       0   40.7    47    5.3   237    -99     7.2   647.70  
 244    2:50       0   41.3    44    2.8   216    -99     5.2   647.70  
 244    3:00       0   41.9    42    2.4   187    -99     6.2   647.70  
 244    3:10       0   41.8    42    1.9   204    -99     3.6   647.40  
 244    3:20       0   41.4    42    3.7   215    -99     6.7   647.40  
 244    3:30       0   41.7    42    5.2   216    -99     8.3   647.40  
 244    3:40       0   41.0    44    6.5   224    -99    10.4   647.40  
 244    3:50       0   40.3    45    6.1   221    -99     8.8   647.40  
 244    4:00       0   40.3    44    4.1   214    -99     7.1   647.40  
 244    4:10       0   40.6    39    2.8   205    -99     5.5   647.20  
 244    4:20       0   40.9    37    4.4   215    -99     7.5   647.20  
 244    4:30       0   40.6    38    3.3   211    -99     5.8   647.20  
 244    4:40       0   40.3    37    2.8   193    -99     7.8   647.20  
 244    4:50       0   41.2    35    4.0   178    -99     8.6   647.20  
 244    5:00       0   41.2    34    3.9   183    -99     8.6   647.20  
 244    5:10       0   40.0    42    4.9   213    -99     7.5   647.00  
 244    5:20       0   39.3    44    7.1   222    -99    10.5   647.00  
 244    5:30       0   39.6    39    7.3   226    -99    10.3   647.00  
 244    5:40       0   39.5    38    7.5   226    -99     9.8   647.00  
 244    5:50       0   39.3    37    7.3   224    -99     9.8   647.00  
 244    6:00       0   39.6    36    5.3   213    -99     8.7   647.00  
 244    6:10       0   39.5    35    5.5   210    -99     9.2   646.90  
 244    6:20       1   39.6    32    4.1   202    -99     7.5   646.90  
 244    6:30       4   40.2    24    4.5   203    -99     9.0   646.90  
 244    6:40      13   39.7    19    5.7   217    -99     9.1   646.90  
 244    6:50      39   40.7    18    6.4   214    -99     9.9   646.90  
 244    7:00      76   42.2    16    4.7   202    -99     8.1   646.90  
 244    7:10     120   43.2    18    3.0   195    -99     8.5   647.10  
 244    7:20     155   43.9    17    3.8   197    -99     7.8   647.10  
 244    7:30     188   44.4    18    3.5   191    -99     8.6   647.10  
 244    7:40     222   44.8    16    4.8   185    -99    10.7   647.10  
 244    7:50     257   45.1    14    5.1   185    -99    11.2   647.10  
 244    8:00     292   45.3    15    6.2   180    -99    12.1   647.10  
 244    8:10     329   45.6    16    6.4   180    -99    11.8   647.20  
 244    8:20     363   46.1    17    7.7   172    -99    12.9   647.20  
 244    8:30     399   46.6    18    7.2   172    -99    11.6   647.20  
 244    8:40     434   47.0    18    6.7   172    -99    10.4   647.20  
 244    8:50     469   47.4    18    6.9   167    -99    11.3   647.20  
 244    9:00     504   47.9    16    5.6   174    -99    11.6   647.20  
 244    9:10     537   47.8    15    6.4   172    -99    11.5   647.40  
 244    9:20     570   48.3    14    5.6   176    -99    10.7   647.40  
 244    9:30     601   48.2    13    6.0   180    -99    12.9   647.40  
 244    9:40     632   48.4    13    6.1   177    -99    12.4   647.40  
 244    9:50     661   48.8    13    7.0   174    -99    13.1   647.40  
 244   10:00     690   49.1    13    6.4   175    -99    12.9   647.40  
 244   10:10     716   48.8    15    8.1   169    -99    14.3   647.70  
 244   10:20     741   50.0    17    7.5   161    -99    12.7   647.70  
 244   10:30     765   50.2    17    7.0   167    -99    13.1   647.70  
 244   10:40     789   49.9    19    7.1   170    -99    14.0   647.70  
 244   10:50     810   50.3    19    7.5   164    -99    14.5   647.70  
 244   11:00     831   50.3    18    7.0   169    -99    12.1   647.70  
 244   11:10     850   50.7    17    6.4   165    -99    12.0   647.90  
 244   11:20     866   50.9    18    6.2   171    -99    12.0   647.90  
 244   11:30     883   50.4    18    6.2   178    -99    13.4   647.90  
 244   11:40     897   51.3    16    5.8   196    -99    13.2   647.90  
 244   11:50     909   51.0    17    5.6   184    -99    11.8   647.90  
 244   12:00     920   51.3    18    5.8   210    -99    13.7   647.90  
 244   12:10     927   51.7    20    6.1   175    -99    14.8   647.80  
 244   12:20     933   52.7    22    5.7   198    -99    12.7   647.80  
 244   12:30     938   51.2    22    6.5   207    -99    11.2   647.80  
 244   12:40     942   51.9    21    6.7   173    -99    12.9   647.80  
 244   12:50     944   52.0    21    7.3   172    -99    13.7   647.80  
 244   13:00     945   51.6    20    7.2   221    -99    13.7   647.80  
 244   13:10     943   51.4    23    5.4   230    -99    10.4   647.90  
 244   13:20     940   51.7    22    6.7   226    -99    12.7   647.90  
 244   13:30     935   51.9    22    7.3   220    -99    13.6   647.90  
 244   13:40     927   52.1    24    6.6   201    -99    15.4   647.90  
 244   13:50     918   52.1    26    6.5   206    -99    13.0   647.90  
 244   14:00     907   51.8    26    7.1   210    -99    11.5   647.90  
 244   14:10     895   52.1    24    6.7   223    -99    12.5   648.00  
 244   14:20     882   51.4    27    7.3   229    -99    13.7   648.00  
 244   14:30     865   51.4    28    7.4   224    -99    15.7   648.00  
 244   14:40     848   51.8    30    6.9   216    -99    15.6   648.00  
 244   14:50     828   51.5    29    7.5   237    -99    16.4   648.00  
 244   15:00     803   51.5    29    8.4   231    -99    14.2   648.00  
 244   15:10     786   51.9    28    7.1   235    -99    14.1   647.90  
 244   15:20     762   51.9    30    8.2   239    -99    15.7   647.90  
 244   15:30     736   51.9    29    7.2   230    -99    15.1   647.90  
 244   15:40     717   52.9    27    8.9   222    -99    17.8   647.90  
 244   15:50     694   52.2    26    7.2   232    -99    14.8   647.90  
 244   16:00     657   52.9    26    7.7   217    -99    15.3   647.90  
 244   16:10     603   52.3    24    7.5   232    -99    15.1   647.70  
 244   16:20     592   53.0    24    6.0   224    -99    13.2   647.70  
 244   16:30     556   52.4    26    8.5   219    -99    17.2   647.70  
 244   16:40     513   52.5    26    8.8   215    -99    17.2   647.70  
 244   16:50     483   51.9    26    7.6   224    -99    15.3   647.70  
 244   17:00     446   51.8    27    6.6   212    -99    13.4   647.70  
 244   17:10     411   51.6    26    7.4   211    -99    12.8   647.40  
 244   17:20     378   51.7    26    7.5   216    -99    15.6   647.40  
 244   17:30     326   51.1    26    7.1   232    -99    13.2   647.40  
 244   17:40     277   50.8    26    7.0   234    -99    15.3   647.40  
 244   17:50     260   50.6    26    6.8   215    -99    12.6   647.40  
 244   18:00     215   50.2    26    5.8   220    -99    10.7   647.40  
 244   18:10      66   49.2    27    7.6   218    -99    13.8   647.40  
 244   18:20      56   48.4    28    6.3   223    -99    12.3   647.40  
 244   18:30      52   48.1    29    6.5   214    -99    10.4   647.40  
 244   18:40      44   47.9    28    6.7   220    -99    10.7   647.40  
 244   18:50      35   47.6    30    5.4   218    -99     9.4   647.40  
 244   19:00      28   47.1    31    5.2   204    -99    10.7   647.40  
 244   19:10      19   46.0    34    5.0   168    -99    10.5   647.50  
 244   19:20      10   44.8    35    4.2   172    -99     9.3   647.50  
 244   19:30       4   44.2    35    3.6   176    -99     7.6   647.50  
 244   19:40       1   43.6    36    2.7   182    -99     6.9   647.50  
 244   19:50       0   42.8    36    2.5   179    -99     7.5   647.50  
 244   20:00       0   42.5    35    3.2   179    -99     6.7   647.50  
 244   20:10       0   41.9    35    2.1   181    -99     4.5   647.60  
 244   20:20       0   41.9    34    2.2   175    -99     4.7   647.60  
 244   20:30       0   41.9    33    1.8   206    -99     4.5   647.60  
 244   20:40       0   41.7    33    1.6   178    -99     4.7   647.60  
 244   20:50       0   41.2    33    1.5   198    -99     3.8   647.60  
 244   21:00       0   41.2    33    2.5   210    -99     6.1   647.60  
 244   21:10       0   41.2    34    3.0   204    -99     5.9   648.00  
 244   21:20       0   41.3    34    3.6   213    -99     5.3   648.00  
 244   21:30       0   41.4    35    4.9   221    -99     7.3   648.00  
 244   21:40       0   41.8    38    4.7   213    -99     7.0   648.00  
 244   21:50       0   41.7    39    5.6   216    -99     9.0   648.00  
 244   22:00       0   41.7    40    6.7   220    -99     9.3   648.00  
 244   22:10       0   41.5    42    6.7   226    -99     9.8   648.20  
 244   22:20       0   41.6    44    7.8   224    -99    10.7   648.20  
 244   22:30       0   41.5    47    7.5   224    -99    10.2   648.20  
 244   22:40       0   41.5    48    8.1   221    -99    11.5   648.20  
 244   22:50       0   41.3    50    7.9   216    -99    10.7   648.20  
 244   23:00       0   40.9    52    7.2   216    -99    10.8   648.20  

Return to Barcroft Research Lab graphs page.


Western Regional Climate Center,wrcc@dri.edu